Time;durP1;ratioP1;P1;durP2;ratioP2;P2;SDS_P1;SDS_P2;PMS_P1;PMS_P2;Temp;Humidity;BMP_temperature;BMP_pressure;BME280_temperature;BME280_humidity;BME280_pressure;Samples;Min_cycle;Max_cycle;Signal;HPM_P1;HPM_P2
2021/09/23 00:09:52;;;;;;;11.23;8.35;;;9.00;98.40;;;;;;4979003;28;20234;-94
2021/09/23 00:15:02;;;;;;;10.80;7.40;;;8.90;98.20;;;;;;5019787;28;20206;-93
2021/09/23 00:22:54;;;;;;;10.55;7.13;;;8.80;98.10;;;;;;5019679;28;20630;-93
2021/09/23 00:31:12;;;;;;;9.20;7.07;;;8.60;98.20;;;;;;5006645;28;20232;-94
2021/09/23 00:36:19;;;;;;;7.97;6.95;;;8.60;98.50;;;;;;5031461;28;20207;-94
2021/09/23 00:38:48;;;;;;;8.85;6.60;;;8.60;98.50;;;;;;5047605;28;20203;-93
2021/09/23 01:01:30;;;;;;;7.55;6.43;;;8.40;98.20;;;;;;4977700;28;20220;-93
2021/09/23 01:07:12;;;;;;;12.15;6.88;;;8.40;98.60;;;;;;5020265;28;20211;-93
2021/09/23 01:24:09;;;;;;;8.30;6.37;;;8.10;98.70;;;;;;4994791;28;20203;-93
2021/09/23 01:29:59;;;;;;;8.13;5.95;;;8.10;98.40;;;;;;4968356;29;20193;-93
2021/09/23 01:32:26;;;;;;;8.43;6.25;;;8.30;98.40;;;;;;4969332;29;20208;-94
2021/09/23 01:35:09;;;;;;;8.95;6.57;;;8.30;98.40;;;;;;4970547;29;20780;-93
2021/09/23 01:51:10;;;;;;;9.48;6.35;;;8.10;98.40;;;;;;4884750;29;20250;-93
2021/09/23 02:02:25;;;;;;;6.95;6.00;;;8.00;98.40;;;;;;4800692;29;20216;-93
2021/09/23 03:58:29;;;;;;;8.13;6.10;;;7.50;98.50;;;;;;4948725;29;20208;-94
2021/09/23 04:03:58;;;;;;;6.90;5.77;;;7.50;98.40;;;;;;4998274;28;20251;-93
2021/09/23 04:06:28;;;;;;;7.17;6.10;;;7.60;98.40;;;;;;5003902;28;20282;-94
2021/09/23 04:08:56;;;;;;;6.67;5.97;;;7.60;98.10;;;;;;5010348;28;20290;-94
2021/09/23 04:11:44;;;;;;;7.17;5.80;;;7.60;98.10;;;;;;4981482;28;20235;-94
2021/09/23 04:14:23;;;;;;;7.83;6.03;;;7.60;97.90;;;;;;5022638;28;20241;-93
2021/09/23 04:16:51;;;;;;;6.90;5.63;;;7.60;97.90;;;;;;5031008;28;20264;-93
2021/09/23 04:19:37;;;;;;;6.97;6.10;;;7.50;97.70;;;;;;5030753;28;20202;-93
2021/09/23 04:22:06;;;;;;;6.80;6.10;;;7.40;98.10;;;;;;5036566;28;20638;-93
2021/09/23 04:32:37;;;;;;;7.43;6.00;;;7.20;98.40;;;;;;4993009;28;20686;-94
2021/09/23 04:35:04;;;;;;;6.50;5.43;;;7.30;98.20;;;;;;5038860;28;20234;-93
2021/09/23 04:45:48;;;;;;;6.80;5.80;;;7.20;98.40;;;;;;5015898;28;20553;-93
2021/09/23 04:50:56;;;;;;;8.40;5.80;;;7.10;98.50;;;;;;5025411;28;20218;-94
2021/09/23 05:01:28;;;;;;;7.17;5.73;;;7.20;98.70;;;;;;5039617;28;20198;-94
2021/09/23 05:06:59;;;;;;;6.90;5.93;;;7.20;98.40;;;;;;5036149;28;20203;-93
2021/09/23 05:09:26;;;;;;;7.60;5.50;;;7.10;98.50;;;;;;5027533;28;20320;-92
2021/09/23 05:18:08;;;;;;;7.60;5.70;;;7.20;98.40;;;;;;4992118;28;20216;-94
2021/09/23 05:23:18;;;;;;;6.60;5.70;;;7.20;98.80;;;;;;5016900;28;20211;-93
2021/09/23 05:26:06;;;;;;;6.33;5.40;;;7.30;98.90;;;;;;4935667;29;20207;-91
2021/09/23 05:31:15;;;;;;;7.10;5.67;;;7.30;98.60;;;;;;4903718;29;20938;-92
2021/09/23 05:33:43;;;;;;;6.80;5.57;;;7.30;98.80;;;;;;5004933;28;20217;-91
2021/09/23 05:36:15;;;;;;;8.57;5.90;;;7.40;98.90;;;;;;5034068;28;20903;-92
2021/09/23 05:38:42;;;;;;;7.53;6.33;;;7.40;98.80;;;;;;5027482;28;20203;-91
2021/09/23 05:41:09;;;;;;;7.90;5.37;;;7.40;98.90;;;;;;5033660;28;20226;-91
2021/09/23 05:49:47;;;;;;;6.07;5.33;;;7.50;98.80;;;;;;5038318;28;20226;-92
2021/09/23 05:52:37;;;;;;;8.30;5.63;;;7.60;98.90;;;;;;5047784;28;20237;-94
2021/09/23 06:02:26;;;;;;;6.17;4.97;;;7.80;98.90;;;;;;5051547;28;20181;-94
2021/09/23 06:04:53;;;;;;;7.90;5.40;;;8.00;98.80;;;;;;5052285;28;20285;-94
2021/09/23 06:07:23;;;;;;;6.53;5.67;;;8.10;98.70;;;;;;5049793;28;20217;-93
2021/09/23 06:28:55;;;;;;;7.75;5.60;;;8.50;98.80;;;;;;4972735;28;20280;-93
2021/09/23 06:31:42;;;;;;;8.85;5.85;;;8.60;98.70;;;;;;4965012;28;20232;-93
2021/09/23 06:34:11;;;;;;;7.53;5.25;;;8.70;98.90;;;;;;4987970;28;20310;-92
2021/09/23 06:36:42;;;;;;;7.63;5.75;;;8.70;99.00;;;;;;4980320;28;20208;-93
2021/09/23 06:39:09;;;;;;;8.65;6.10;;;8.90;98.90;;;;;;4975230;28;20228;-93
2021/09/23 06:45:00;;;;;;;10.02;6.13;;;9.00;98.50;;;;;;4968885;28;20231;-92
2021/09/23 06:47:27;;;;;;;7.70;5.65;;;9.10;98.60;;;;;;4976604;28;20281;-93
2021/09/23 06:49:54;;;;;;;9.77;5.65;;;9.20;98.60;;;;;;4980753;28;20220;-92
2021/09/23 06:52:21;;;;;;;8.77;5.75;;;9.30;98.30;;;;;;4972523;28;20227;-93
2021/09/23 06:54:48;;;;;;;6.75;5.22;;;9.40;98.00;;;;;;4982248;28;20220;-93
2021/09/23 07:02:38;;;;;;;7.22;5.25;;;9.60;97.60;;;;;;4978568;28;20219;-93
2021/09/23 07:05:06;;;;;;;7.75;5.53;;;9.80;97.50;;;;;;4980587;28;20300;-93
2021/09/23 07:07:35;;;;;;;8.75;5.13;;;9.80;97.20;;;;;;4978749;28;20224;-92
2021/09/23 07:10:30;;;;;;;6.93;5.25;;;9.90;97.10;;;;;;4990461;28;20252;-93
2021/09/23 07:26:47;;;;;;;6.63;5.55;;;10.40;95.80;;;;;;4912736;29;20234;-93
2021/09/23 07:33:35;;;;;;;7.15;5.30;;;10.80;94.80;;;;;;4916110;29;20329;-92
2021/09/23 07:39:10;;;;;;;5.93;5.32;;;11.10;93.90;;;;;;4864697;29;20247;-93
2021/09/23 07:44:51;;;;;;;6.65;5.53;;;11.40;93.10;;;;;;4921460;29;20241;-93
2021/09/23 07:50:04;;;;;;;7.80;5.07;;;11.70;93.10;;;;;;4926206;29;20250;-93
2021/09/23 07:55:46;;;;;;;5.97;5.28;;;12.30;90.80;;;;;;4860204;29;20269;-94
2021/09/23 07:58:32;;;;;;;5.93;5.32;;;12.30;91.40;;;;;;4872145;28;20301;-93
2021/09/23 08:01:18;;;;;;;6.70;5.32;;;12.40;90.80;;;;;;4995677;28;20209;-93
2021/09/23 08:03:45;;;;;;;6.28;5.68;;;12.40;90.80;;;;;;5006510;28;20291;-93
2021/09/23 08:06:13;;;;;;;9.90;5.22;;;12.50;90.90;;;;;;4998813;28;20265;-93
2021/09/23 08:09:28;;;;;;;6.45;5.50;;;12.50;90.90;;;;;;4999132;28;20232;-94
2021/09/23 08:14:55;;;;;;;7.00;5.97;;;12.70;90.90;;;;;;6060422;23;20349;-93
2021/09/23 08:17:23;;;;;;;6.10;5.35;;;12.70;90.90;;;;;;5031799;28;20192;-92
2021/09/23 08:35:26;;;;;;;7.32;5.07;;;13.50;88.20;;;;;;4979362;28;20197;-93
2021/09/23 08:41:18;;;;;;;4.90;4.40;;;13.80;88.50;;;;;;5018800;28;20262;-92
2021/09/23 08:43:45;;;;;;;4.93;3.97;;;13.90;82.30;;;;;;5049564;28;20278;-92
2021/09/23 08:49:15;;;;;;;6.40;4.20;;;14.20;82.70;;;;;;5030588;28;20206;-93
2021/09/23 08:51:42;;;;;;;4.30;3.90;;;14.30;78.70;;;;;;5035548;28;20219;-93
2021/09/23 08:54:09;;;;;;;7.15;3.70;;;14.40;78.50;;;;;;5037973;28;20262;-93
2021/09/23 08:56:36;;;;;;;6.95;3.50;;;14.60;77.00;;;;;;5038509;28;20202;-93
2021/09/23 08:59:03;;;;;;;5.03;3.63;;;14.80;76.60;;;;;;5049005;28;20292;-93
2021/09/23 09:04:17;;;;;;;5.68;3.67;;;15.20;75.40;;;;;;5034075;28;20202;-93
2021/09/23 09:06:53;;;;;;;3.83;3.53;;;15.50;70.90;;;;;;5028187;28;20198;-93
2021/09/23 09:12:01;;;;;;;4.15;3.30;;;16.50;61.20;;;;;;5005499;28;20260;-94
2021/09/23 09:14:30;;;;;;;4.00;3.25;;;16.80;54.70;;;;;;5036182;28;20222;-94
2021/09/23 09:22:39;;;;;;;4.93;2.83;;;17.40;47.70;;;;;;5026664;28;20203;-94
2021/09/23 09:25:17;;;;;;;3.50;3.20;;;18.30;42.30;;;;;;5032188;28;20268;-92
2021/09/23 09:27:46;;;;;;;4.95;3.50;;;19.20;40.90;;;;;;5029529;28;20282;-91
2021/09/23 09:30:15;;;;;;;3.55;3.25;;;19.70;38.10;;;;;;5026470;28;20229;-89
2021/09/23 09:32:47;;;;;;;3.70;3.40;;;21.10;33.00;;;;;;5028950;28;20403;-90
2021/09/23 09:35:17;;;;;;;3.47;3.17;;;22.40;31.80;;;;;;5012721;28;20218;-90
2021/09/23 09:37:46;;;;;;;5.15;3.33;;;23.90;27.60;;;;;;5031150;28;20668;-90
2021/09/23 09:40:16;;;;;;;3.65;3.28;;;24.50;24.10;;;;;;5021360;28;20654;-90
2021/09/23 09:42:45;;;;;;;4.00;3.50;;;24.60;24.10;;;;;;5023887;28;20377;-91
2021/09/23 09:45:17;;;;;;;3.92;3.63;;;24.30;23.70;;;;;;5022193;28;20226;-90
2021/09/23 09:47:52;;;;;;;3.45;3.08;;;25.70;22.40;;;;;;5028208;28;20195;-90
2021/09/23 09:50:21;;;;;;;3.83;3.53;;;26.00;19.60;;;;;;5021363;28;20218;-91
2021/09/23 09:52:49;;;;;;;3.08;2.88;;;25.30;19.10;;;;;;5021541;28;20604;-91
2021/09/23 09:55:18;;;;;;;3.50;3.20;;;24.20;24.30;;;;;;5030466;28;20225;-91
2021/09/23 09:57:46;;;;;;;3.30;3.10;;;25.10;20.40;;;;;;5026342;28;20198;-90
2021/09/23 10:00:15;;;;;;;3.00;2.80;;;25.40;21.70;;;;;;5029501;28;20233;-91
2021/09/23 10:02:43;;;;;;;3.60;3.30;;;26.40;20.30;;;;;;5023561;28;20205;-90
2021/09/23 10:05:13;;;;;;;3.47;3.17;;;27.00;17.70;;;;;;5025295;28;20263;-91
2021/09/23 10:07:44;;;;;;;3.60;3.30;;;28.00;18.00;;;;;;5030115;28;20194;-90
2021/09/23 10:10:13;;;;;;;4.80;3.30;;;27.10;15.30;;;;;;5027565;28;20245;-91
2021/09/23 10:12:43;;;;;;;3.10;2.90;;;27.30;16.30;;;;;;5034633;28;20305;-90
2021/09/23 10:15:13;;;;;;;3.78;3.33;;;26.50;17.70;;;;;;5036308;28;20226;-91
2021/09/23 10:17:42;;;;;;;3.88;3.15;;;27.20;15.30;;;;;;5035723;28;20202;-90
2021/09/23 10:20:13;;;;;;;3.95;3.65;;;26.70;18.60;;;;;;5030328;28;20229;-90
2021/09/23 10:22:40;;;;;;;4.32;3.35;;;26.40;19.50;;;;;;5030616;28;20205;-90
2021/09/23 10:25:09;;;;;;;3.10;2.90;;;26.10;18.00;;;;;;5018100;28;20231;-91
2021/09/23 10:30:22;;;;;;;3.60;3.30;;;26.30;19.80;;;;;;5021860;28;20232;-91
2021/09/23 10:32:49;;;;;;;3.42;3.13;;;27.40;17.80;;;;;;5033263;28;20222;-91
2021/09/23 10:35:22;;;;;;;4.03;3.10;;;27.40;17.40;;;;;;5025697;28;20252;-91
2021/09/23 10:37:50;;;;;;;3.38;3.17;;;27.50;17.60;;;;;;5028977;28;20658;-90
2021/09/23 10:40:18;;;;;;;3.10;2.90;;;27.40;18.80;;;;;;5030619;28;20228;-91
2021/09/23 10:42:46;;;;;;;3.10;2.90;;;27.10;15.20;;;;;;5023472;28;20626;-91
2021/09/23 10:45:15;;;;;;;3.67;3.35;;;27.50;18.00;;;;;;5021534;28;20225;-90
2021/09/23 10:47:46;;;;;;;3.30;3.10;;;26.70;17.80;;;;;;5026208;28;20209;-91
2021/09/23 10:50:14;;;;;;;5.93;3.00;;;26.50;18.00;;;;;;5020532;28;20227;-90
2021/09/23 10:52:42;;;;;;;3.65;3.35;;;27.40;19.90;;;;;;5017338;28;20283;-91
2021/09/23 10:55:10;;;;;;;3.90;2.90;;;27.10;17.70;;;;;;5022389;28;20222;-91
2021/09/23 10:57:39;;;;;;;3.92;3.58;;;27.20;20.90;;;;;;5026481;28;20202;-91
2021/09/23 11:00:10;;;;;;;3.40;3.20;;;27.00;17.80;;;;;;5023866;28;20224;-91
2021/09/23 11:02:37;;;;;;;4.93;4.53;;;25.90;18.60;;;;;;5024568;28;20205;-91
2021/09/23 11:05:11;;;;;;;4.53;2.70;;;25.60;21.50;;;;;;5023372;28;20221;-90
2021/09/23 11:07:46;;;;;;;3.40;3.10;;;24.30;20.60;;;;;;5026207;28;20222;-90
2021/09/23 11:12:59;;;;;;;2.80;2.60;;;23.30;23.20;;;;;;5024525;28;20226;-90
2021/09/23 11:15:29;;;;;;;3.00;2.20;;;22.80;23.80;;;;;;5029501;28;20309;-90
2021/09/23 11:26:06;;;;;;;3.55;2.30;;;21.10;27.90;;;;;;5015674;28;20198;-93
2021/09/23 11:28:34;;;;;;;3.53;2.60;;;21.20;27.80;;;;;;5012578;28;20202;-93
2021/09/23 11:31:07;;;;;;;4.30;2.35;;;21.30;29.00;;;;;;5008589;28;20237;-92
2021/09/23 11:33:41;;;;;;;2.45;2.25;;;21.50;30.10;;;;;;5031525;28;20207;-92
2021/09/23 11:36:10;;;;;;;2.63;2.42;;;21.50;27.00;;;;;;5017642;28;20226;-93
2021/09/23 11:41:19;;;;;;;2.80;2.60;;;21.00;27.00;;;;;;5033604;28;20199;-92
2021/09/23 11:43:46;;;;;;;2.60;2.40;;;21.00;28.40;;;;;;5013003;28;20286;-92
2021/09/23 11:46:13;;;;;;;2.50;2.30;;;20.90;28.70;;;;;;5034566;28;20285;-92
2021/09/23 12:05:39;;;;;;;4.32;2.90;;;21.20;28.40;;;;;;5027201;28;20198;-92
2021/09/23 12:19:04;;;;;;;2.53;2.33;;;20.90;27.60;;;;;;5015895;28;20233;-92
2021/09/23 12:21:35;;;;;;;3.25;2.20;;;20.90;27.40;;;;;;5013397;28;20195;-91
2021/09/23 12:24:02;;;;;;;2.75;2.40;;;21.00;26.70;;;;;;5041632;28;20284;-92
2021/09/23 12:34:55;;;;;;;2.92;2.50;;;21.20;28.70;;;;;;5028085;28;20793;-92
2021/09/23 12:46:10;;;;;;;2.97;2.70;;;21.30;32.00;;;;;;5032426;28;20222;-89
2021/09/23 12:48:37;;;;;;;2.72;2.53;;;21.00;28.90;;;;;;5034098;28;20245;-88
2021/09/23 12:51:05;;;;;;;3.10;2.42;;;21.00;28.90;;;;;;5015467;28;20202;-89
2021/09/23 12:53:32;;;;;;;2.50;2.30;;;21.00;29.40;;;;;;5036905;28;20219;-90
2021/09/23 12:55:59;;;;;;;3.88;2.72;;;21.10;28.40;;;;;;5033639;28;20230;-90
2021/09/23 12:58:28;;;;;;;3.70;2.58;;;21.20;27.70;;;;;;5031897;28;20217;-89
2021/09/23 13:00:56;;;;;;;3.90;2.33;;;21.20;28.30;;;;;;5040330;28;20238;-88
2021/09/23 13:08:53;;;;;;;2.65;2.45;;;21.20;28.20;;;;;;4987052;28;20225;-91
2021/09/23 13:11:44;;;;;;;2.95;2.28;;;21.20;27.40;;;;;;5028992;28;20924;-91
2021/09/23 13:20:46;;;;;;;3.17;2.55;;;21.20;30.40;;;;;;5001063;28;20207;-91
2021/09/23 13:26:16;;;;;;;3.22;2.70;;;21.30;30.80;;;;;;5021989;28;20645;-91
2021/09/23 13:31:28;;;;;;;3.28;2.80;;;21.20;30.00;;;;;;5034797;28;20288;-91
2021/09/23 13:33:55;;;;;;;2.78;2.55;;;21.20;31.90;;;;;;4996244;28;20694;-88
2021/09/23 13:36:22;;;;;;;2.78;2.50;;;21.20;31.30;;;;;;5012702;28;20234;-87
2021/09/23 13:38:49;;;;;;;14.40;4.40;;;21.20;30.70;;;;;;5016091;28;20206;-88
2021/09/23 13:41:16;;;;;;;6.25;2.70;;;21.10;30.30;;;;;;5034227;28;20235;-87
2021/09/23 13:43:44;;;;;;;3.63;2.97;;;21.10;30.70;;;;;;5035442;28;20195;-88
2021/09/23 13:46:11;;;;;;;3.95;2.70;;;21.10;30.30;;;;;;5028254;28;20214;-88
2021/09/23 13:48:41;;;;;;;5.75;2.92;;;21.10;31.40;;;;;;5001700;28;20214;-88
2021/09/23 13:51:22;;;;;;;4.75;2.65;;;21.10;33.00;;;;;;5036078;28;20200;-87
2021/09/23 13:56:35;;;;;;;3.10;2.10;;;21.00;31.90;;;;;;5018818;28;20229;-90
2021/09/23 13:59:02;;;;;;;2.47;2.28;;;20.90;31.60;;;;;;5007496;28;20605;-91
2021/09/23 14:01:29;;;;;;;5.22;2.45;;;20.80;32.70;;;;;;5026010;28;20267;-91
2021/09/23 14:03:58;;;;;;;3.03;2.38;;;20.60;32.50;;;;;;5030512;28;20211;-90
2021/09/23 14:06:25;;;;;;;2.58;2.38;;;20.70;32.70;;;;;;5034221;28;20202;-91
2021/09/23 14:08:52;;;;;;;2.78;2.58;;;20.70;32.60;;;;;;5028860;28;20270;-92
2021/09/23 14:14:00;;;;;;;4.40;2.55;;;20.70;32.60;;;;;;4998884;28;20866;-91
2021/09/23 14:16:28;;;;;;;3.58;2.50;;;20.70;32.40;;;;;;5026806;28;20207;-90
2021/09/23 14:19:04;;;;;;;3.95;2.50;;;20.70;32.60;;;;;;4994159;28;20206;-89
2021/09/23 14:21:32;;;;;;;4.47;2.60;;;20.70;32.20;;;;;;5028136;28;20674;-90
2021/09/23 14:23:59;;;;;;;3.92;2.30;;;20.70;30.80;;;;;;5009269;28;20226;-89
2021/09/23 14:26:29;;;;;;;2.78;2.40;;;20.60;30.40;;;;;;5031695;28;20208;-90
2021/09/23 14:28:59;;;;;;;3.65;3.22;;;20.50;31.20;;;;;;5021903;28;20195;-91
2021/09/23 14:36:53;;;;;;;3.22;2.65;;;20.40;32.40;;;;;;5030823;28;20210;-90
2021/09/23 14:39:20;;;;;;;2.72;2.53;;;20.30;32.30;;;;;;4995003;28;20581;-89
2021/09/23 14:41:48;;;;;;;3.15;2.60;;;20.30;32.30;;;;;;5030247;28;20203;-90
2021/09/23 14:44:15;;;;;;;6.78;3.03;;;20.30;33.30;;;;;;5017596;28;20256;-89
2021/09/23 14:46:43;;;;;;;3.22;2.92;;;20.20;32.30;;;;;;5035419;28;20194;-91
2021/09/23 14:49:32;;;;;;;2.90;2.60;;;20.20;34.50;;;;;;5031943;28;20705;-90
2021/09/23 14:51:59;;;;;;;5.63;2.70;;;20.20;34.50;;;;;;5030777;28;20198;-90
2021/09/23 14:54:26;;;;;;;3.15;2.83;;;20.10;35.40;;;;;;5024959;28;20228;-90
2021/09/23 14:56:53;;;;;;;2.95;2.53;;;20.20;35.40;;;;;;5029641;28;20290;-90
2021/09/23 15:02:02;;;;;;;3.08;2.55;;;20.20;32.20;;;;;;4999021;28;20213;-94
2021/09/23 15:04:54;;;;;;;3.08;2.47;;;20.10;32.20;;;;;;5033723;28;20230;-94
2021/09/23 15:12:55;;;;;;;2.63;2.42;;;20.10;32.20;;;;;;5021131;28;20662;-94
2021/09/23 15:30:07;;;;;;;5.60;3.20;;;19.70;35.10;;;;;;4937655;28;20234;-94
2021/09/23 15:32:44;;;;;;;3.75;3.00;;;19.60;36.70;;;;;;4974298;28;20211;-93
2021/09/23 15:35:17;;;;;;;3.28;2.97;;;19.50;37.30;;;;;;4983285;28;20283;-92
2021/09/23 15:37:54;;;;;;;10.68;9.57;;;19.50;37.00;;;;;;4991897;28;20212;-90
2021/09/23 15:40:24;;;;;;;6.90;5.45;;;19.40;37.40;;;;;;5039615;28;20305;-91
2021/09/23 15:42:51;;;;;;;5.75;3.70;;;19.30;37.80;;;;;;5035621;28;21032;-92
2021/09/23 15:45:19;;;;;;;3.63;3.30;;;19.30;37.70;;;;;;5017010;28;20684;-90
2021/09/23 15:47:47;;;;;;;5.03;3.53;;;19.30;38.70;;;;;;5038526;28;20201;-91
2021/09/23 15:50:18;;;;;;;4.00;3.60;;;19.30;39.10;;;;;;5039291;28;20747;-91
2021/09/23 15:52:47;;;;;;;3.55;3.22;;;19.20;39.30;;;;;;5025283;28;20219;-90
2021/09/23 15:55:15;;;;;;;3.33;3.03;;;19.10;39.20;;;;;;5030268;28;20233;-91
2021/09/23 16:00:25;;;;;;;3.70;3.40;;;19.10;39.30;;;;;;5043878;28;20222;-92
2021/09/23 16:02:55;;;;;;;4.60;2.95;;;19.10;40.00;;;;;;5027604;28;20201;-92
2021/09/23 16:05:24;;;;;;;4.22;3.40;;;19.00;40.40;;;;;;5026211;28;20294;-92
2021/09/23 16:08:12;;;;;;;3.22;2.72;;;18.90;41.20;;;;;;5038308;28;20205;-90
2021/09/23 16:10:41;;;;;;;3.70;2.90;;;18.80;42.70;;;;;;5019499;28;20230;-89
2021/09/23 16:15:58;;;;;;;6.60;4.22;;;18.60;45.30;;;;;;5031155;28;20682;-91
2021/09/23 16:18:28;;;;;;;4.25;3.60;;;18.50;47.60;;;;;;5020448;28;20268;-92
2021/09/23 16:20:56;;;;;;;5.65;3.20;;;18.50;47.60;;;;;;5027549;28;20237;-91
2021/09/23 16:23:24;;;;;;;4.78;2.97;;;18.50;48.20;;;;;;5055949;28;20208;-92
2021/09/23 16:25:53;;;;;;;3.17;2.88;;;18.40;49.00;;;;;;5033643;28;20744;-91
2021/09/23 16:35:01;;;;;;;4.70;2.65;;;18.30;47.90;;;;;;5042680;28;20597;-92
2021/09/23 16:40:13;;;;;;;3.13;2.83;;;18.20;45.90;;;;;;5011783;28;20247;-91
2021/09/23 16:42:41;;;;;;;4.32;2.75;;;18.10;44.10;;;;;;5053999;28;20297;-88
2021/09/23 16:45:12;;;;;;;2.92;2.63;;;18.00;43.80;;;;;;5047376;28;20229;-91
2021/09/23 16:47:42;;;;;;;5.00;2.63;;;17.90;44.40;;;;;;5056669;28;20198;-88
2021/09/23 16:53:31;;;;;;;6.03;2.60;;;17.80;44.60;;;;;;5058995;28;20309;-90
2021/09/23 16:55:59;;;;;;;3.10;2.83;;;17.70;43.30;;;;;;5046544;28;20239;-88
2021/09/23 16:58:39;;;;;;;4.65;2.90;;;17.50;44.30;;;;;;5044828;28;20266;-89
2021/09/23 17:01:07;;;;;;;3.47;2.58;;;17.40;44.40;;;;;;5054086;28;20534;-88
2021/09/23 17:04:11;;;;;;;3.75;2.80;;;17.30;45.40;;;;;;5062665;28;20182;-90
2021/09/23 17:06:39;;;;;;;3.13;2.83;;;17.10;46.30;;;;;;5046875;28;20749;-90
2021/09/23 17:09:07;;;;;;;3.13;2.83;;;17.10;46.60;;;;;;5077844;28;20593;-90
2021/09/23 17:11:35;;;;;;;4.38;2.60;;;17.00;46.90;;;;;;5062271;28;20201;-90
2021/09/23 17:14:03;;;;;;;3.67;3.17;;;16.90;47.60;;;;;;5395661;23;20309;-91
2021/09/23 17:16:31;;;;;;;4.50;3.30;;;16.80;49.10;;;;;;5052112;28;20202;-90
2021/09/23 17:18:58;;;;;;;4.18;3.03;;;16.70;49.10;;;;;;5056724;28;20197;-88
2021/09/23 17:24:50;;;;;;;3.67;3.35;;;16.50;51.60;;;;;;5057437;28;20169;-91
2021/09/23 17:27:17;;;;;;;4.13;3.60;;;16.50;52.00;;;;;;5045890;28;20746;-90
2021/09/23 17:29:44;;;;;;;5.20;3.90;;;16.30;52.50;;;;;;5045264;28;20218;-92
2021/09/23 17:32:13;;;;;;;3.50;3.20;;;16.30;52.50;;;;;;5055037;28;20205;-90
2021/09/23 17:34:45;;;;;;;6.22;3.15;;;16.30;52.50;;;;;;5043945;28;20227;-89
2021/09/23 17:37:12;;;;;;;3.75;3.25;;;16.20;52.50;;;;;;5045660;28;20212;-89
2021/09/23 17:39:40;;;;;;;4.07;3.40;;;16.00;55.40;;;;;;5038214;28;20230;-90
2021/09/23 17:42:07;;;;;;;4.25;3.50;;;16.00;56.30;;;;;;5034991;28;20292;-91
2021/09/23 17:44:42;;;;;;;3.83;3.38;;;15.90;57.40;;;;;;5047226;28;20230;-93
2021/09/23 17:47:13;;;;;;;4.80;3.05;;;15.80;58.50;;;;;;5050497;28;20204;-91
2021/09/23 17:52:21;;;;;;;4.03;3.63;;;15.60;61.10;;;;;;5036663;28;20202;-91
2021/09/23 17:54:49;;;;;;;4.90;4.00;;;15.60;62.70;;;;;;5044459;28;20222;-90
2021/09/23 17:57:23;;;;;;;6.63;4.18;;;15.60;63.60;;;;;;5047083;28;20237;-91
2021/09/23 17:59:50;;;;;;;4.78;4.22;;;15.50;64.00;;;;;;5051718;28;20300;-93
2021/09/23 18:02:19;;;;;;;4.65;4.22;;;15.50;63.70;;;;;;5047657;28;20208;-91
2021/09/23 18:04:46;;;;;;;5.55;4.30;;;15.40;64.20;;;;;;5049418;28;20232;-91
2021/09/23 18:07:15;;;;;;;5.13;4.15;;;15.40;65.10;;;;;;5041358;28;20290;-92
2021/09/23 18:09:42;;;;;;;5.65;4.15;;;15.40;65.60;;;;;;5050063;28;20213;-91
2021/09/23 18:12:09;;;;;;;4.85;4.15;;;15.30;66.30;;;;;;5043099;28;20263;-91
2021/09/23 18:14:41;;;;;;;5.28;4.20;;;15.30;67.20;;;;;;5049433;28;20222;-92
2021/09/23 18:17:08;;;;;;;6.00;4.28;;;15.20;67.80;;;;;;5044664;28;20206;-90
2021/09/23 18:19:37;;;;;;;6.05;4.47;;;15.20;68.30;;;;;;5048642;28;20233;-91
2021/09/23 18:22:27;;;;;;;4.30;3.90;;;15.20;68.80;;;;;;5066211;28;20201;-90
2021/09/23 18:24:54;;;;;;;4.05;3.65;;;15.30;68.00;;;;;;5049315;28;20697;-91
2021/09/23 18:27:27;;;;;;;5.40;4.28;;;15.30;68.00;;;;;;5046269;28;20198;-91
2021/09/23 19:11:12;;;;;;;7.43;3.67;;;14.60;77.00;;;;;;5055023;28;20232;-89
2021/09/23 19:39:37;;;;;;;4.45;3.90;;;14.30;76.70;;;;;;5818367;23;20236;-89
2021/09/23 19:49:47;;;;;;;6.45;4.18;;;14.30;76.80;;;;;;5063033;28;20204;-87
2021/09/23 19:52:14;;;;;;;4.53;4.13;;;14.20;76.70;;;;;;5062620;28;20276;-89
2021/09/23 19:54:45;;;;;;;3.97;3.60;;;14.20;76.70;;;;;;5063537;28;20234;-88
